KBYI

Burley Municipal Airport

Burley, Idaho, USA
KBYI 141734Z 1418/1518 05010KT P6SM SCT160 FM142000 07010KT P6SM BKN120 FM150100 09007KT P6SM -SHSNRA SCT030 BKN090 FM150600 23010KT P6SM VCSH SCT030 OVC050 FM151300 22006KT P6SM SCT020 BKN030
Issued Valid From Valid To
Dec-14 @ 17:34 UTC
(5 hours ago)
Dec-14 @ 18:00 UTC
(4 hours ago)
Dec-15 @ 18:00 UTC
(in 20 hours)
Expired Click to View Dec-14 @ 18:00 to Dec-14 @ 20:00
KBYI 141734Z 1418/1518 05010KT P6SM SCT160
Wind Visibility Clouds
50° at 10 knots Greater than 6 miles
  • Scattered at 16,000' AGL
From Dec-14 @ 20:00 to Dec-15 @ 01:00
FM142000 07010KT P6SM BKN120
Wind Visibility Clouds
70° at 10 knots Greater than 6 miles
  • Broken at 12,000' AGL
From Dec-15 @ 01:00 to Dec-15 @ 06:00
FM150100 09007KT P6SM -SHSNRA SCT030 BKN090
Wind Visibility Clouds Conditions
90° at 7 knots Greater than 6 miles
  • Scattered at 3,000' AGL
  • Broken at 9,000' AGL
  • Light Snow
  • Light Rain
From Dec-15 @ 06:00 to Dec-15 @ 13:00
FM150600 23010KT P6SM VCSH SCT030 OVC050
Wind Visibility Clouds
230° at 10 knots Greater than 6 miles
  • Scattered at 3,000' AGL
  • Overcast at 5,000' AGL
From Dec-15 @ 13:00 to Dec-15 @ 18:00
FM151300 22006KT P6SM SCT020 BKN030
Wind Visibility Clouds
220° at 6 knots Greater than 6 miles
  • Scattered at 2,000' AGL
  • Broken at 3,000' AGL
KBYI 141734Z 1418/1518 05010KT P6SM SCT160 FM142000 07010KT P6SM BKN120 FM150100 09007KT P6SM -SHSNRA SCT030 BKN090 FM150600 23010KT P6SM VCSH SCT030 OVC050 FM151300 22006KT P6SM SCT020 BKN030
Issued Dec-14 @ 17:34 UTC
(5 hours ago)
Valid From Dec-14 @ 18:00 UTC
(4 hours ago)
Valid To Dec-15 @ 18:00 UTC
(in 20 hours)
Dec-14 @ 18:00 - Dec-14 @ 20:00
Wind Visibility
50° at 10 knots Greater than 6 miles
Clouds
  • Scattered at 16,000' AGL
From Dec-14 @ 20:00 - Dec-15 @ 01:00
Wind Visibility
70° at 10 knots Greater than 6 miles
Clouds
  • Broken at 12,000' AGL
From Dec-15 @ 01:00 - Dec-15 @ 06:00
Wind Visibility
90° at 7 knots Greater than 6 miles
Clouds
  • Scattered at 3,000' AGL
  • Broken at 9,000' AGL
Conditions
  • Light Snow
  • Light Rain
From Dec-15 @ 06:00 - Dec-15 @ 13:00
Wind Visibility
230° at 10 knots Greater than 6 miles
Clouds
  • Scattered at 3,000' AGL
  • Overcast at 5,000' AGL
From Dec-15 @ 13:00 - Dec-15 @ 18:00
Wind Visibility
220° at 6 knots Greater than 6 miles
Clouds
  • Scattered at 2,000' AGL
  • Broken at 3,000' AGL